Big Stone Express — WCX9178 — position and weather

sailwx.info

Track history (hours):
 
Tides and Currents Weather Stations Pressure Air Temp Water Temp Dewpoint Dewpoint Depression Visibility Wind Speed Wind Dir Waves Ship Positions

Big Stone Express

Owner: DELAWARE BAY LAUNCH SERVICE, MILFORD, DE. More information available from US FCC via Universal Licensing System and Coast Guard Vessel Documentation Center.

Last reported at 2017-Nov-19 11:34 UTC. Time now 2017-Nov-21 23:09 UTC.
Position N 38°56' W 075°19'.

Length 25 m; draft 2 m.

MMSI: 36708110.

Date/timePositionNaut miles runAvg speedWind from/ knotsBaromVisibWave heightAir tempDewpointWater temp
2017-Nov-19 11:34N 38°56' W 075°19'0 0.0
2017-Nov-19 11:21N 38°56' W 075°19'0 0.1
2017-Nov-19 08:16N 38°57' W 075°19'619.0
2017-Nov-19 07:58N 38°58' W 075°12'6 0.4
2017-Nov-18 15:11N 38°56' W 075°19'0 0.0
2017-Nov-18 14:52N 38°56' W 075°19'612.5
2017-Nov-18 14:21N 38°57' W 075°11'1 1.7
2017-Nov-18 13:48N 38°56' W 075°11'1 0.0
2017-Nov-17 06:47N 38°58' W 075°11'6 0.5
2017-Nov-16 17:21N 38°56' W 075°19'0 0.0
2017-Nov-16 16:54N 38°56' W 075°19'0 0.0
2017-Nov-16 15:25N 38°56' W 075°19'0 0.0
2017-Nov-16 13:58N 38°56' W 075°19'0 0.0
2017-Nov-16 13:22N 38°56' W 075°19'0 0.0
2017-Nov-16 13:00N 38°56' W 075°19'0 0.0
2017-Nov-16 12:30N 38°56' W 075°19'0 0.0
2017-Nov-16 12:00N 38°56' W 075°19'0 0.0
2017-Nov-16 11:30N 38°56' W 075°19'0 0.0
2017-Nov-16 11:00N 38°56' W 075°19'0 0.0
2017-Nov-16 10:30N 38°56' W 075°19'0 0.0
2017-Nov-16 09:52N 38°56' W 075°19'0 0.0
2017-Nov-16 09:30N 38°56' W 075°19'0 0.0
2017-Nov-16 00:28N 38°56' W 075°19'0 0.0
2017-Nov-15 18:11N 38°56' W 075°19'1 2.1
2017-Nov-15 17:48N 38°56' W 075°18'5 1.1
2017-Nov-15 13:17N 39°00' W 075°14'0 0.1
2017-Nov-15 12:54N 39°00' W 075°14'5 9.4
2017-Nov-15 12:21N 38°56' W 075°18'1 0.1
2017-Nov-15 02:44N 38°56' W 075°19'0 0.0
2017-Nov-14 12:43N 38°56' W 075°19'0 0.0
2017-Nov-14 11:21N 38°56' W 075°19'0 0.0
2017-Nov-14 10:57N 38°56' W 075°19'0 0.0
2017-Nov-14 10:06N 38°56' W 075°19'0 0.0
2017-Nov-14 10:00N 38°56' W 075°19'0 0.0
2017-Nov-14 09:26N 38°56' W 075°19'0 0.0
2017-Nov-14 08:56N 38°56' W 075°19'0 0.0
2017-Nov-14 08:23N 38°56' W 075°19'0 0.0
2017-Nov-14 08:00N 38°56' W 075°19'0 0.0
2017-Nov-14 07:29N 38°56' W 075°19'0 0.0
2017-Nov-14 07:00N 38°56' W 075°19'0 0.0
2017-Nov-14 06:29N 38°56' W 075°19'0 0.0
2017-Nov-14 06:00N 38°56' W 075°19'0 0.0
2017-Nov-14 05:29N 38°56' W 075°19'0 0.0
2017-Nov-14 04:40N 38°56' W 075°19'0 0.0
2017-Nov-14 04:30N 38°56' W 075°19'0 0.0
2017-Nov-14 03:58N 38°56' W 075°19'0 0.0
2017-Nov-14 03:27N 38°56' W 075°19'0 0.0
2017-Nov-14 02:58N 38°56' W 075°19'0 0.0
2017-Nov-14 02:21N 38°56' W 075°19'  
2017-Nov-11 17:07N 38°59' W 075°13'0 0.6
2017-Nov-11 17:00N 38°59' W 075°13'6 0.2
2017-Nov-10 11:21N 38°56' W 075°19'0 0.0
2017-Nov-10 10:45N 38°56' W 075°19'0 0.0
2017-Nov-10 10:30N 38°56' W 075°19'0 0.0
2017-Nov-10 10:00N 38°56' W 075°19'0 0.0
2017-Nov-10 09:30N 38°56' W 075°19'0 0.0
2017-Nov-10 09:00N 38°56' W 075°19'0 0.0
2017-Nov-10 08:30N 38°56' W 075°19'0 0.0
2017-Nov-10 08:00N 38°56' W 075°19'0 0.0
2017-Nov-10 07:30N 38°56' W 075°19'0 0.0
2017-Nov-10 07:00N 38°56' W 075°19'0 0.0
2017-Nov-10 06:30N 38°56' W 075°19'0 0.0
2017-Nov-10 06:00N 38°56' W 075°19'0 0.0
2017-Nov-10 02:19N 38°56' W 075°19'0 0.0
2017-Nov-10 01:55N 38°56' W 075°19'  
Track history (hours):
 
Tides and Currents Weather Stations Pressure Air Temp Water Temp Dewpoint Dewpoint Depression Visibility Wind Speed Wind Dir Waves Ship Positions

Big Stone Express

Owner: DELAWARE BAY LAUNCH SERVICE, MILFORD, DE. More information available from US FCC via Universal Licensing System and Coast Guard Vessel Documentation Center.

Last reported at 2017-Nov-19 11:34 UTC. Time now 2017-Nov-21 23:09 UTC.
Position N 38°56' W 075°19'.

Length 25 m; draft 2 m.

MMSI: 36708110.

Date/timePositionNaut miles runAvg speedWind from/ knotsBaromVisibWave heightAir tempDewpointWater temp
2017-Nov-19 11:34N 38°56' W 075°19'0 0.0
2017-Nov-19 11:21N 38°56' W 075°19'0 0.1
2017-Nov-19 08:16N 38°57' W 075°19'619.0
2017-Nov-19 07:58N 38°58' W 075°12'6 0.4
2017-Nov-18 15:11N 38°56' W 075°19'0 0.0
2017-Nov-18 14:52N 38°56' W 075°19'612.5
2017-Nov-18 14:21N 38°57' W 075°11'1 1.7
2017-Nov-18 13:48N 38°56' W 075°11'1 0.0
2017-Nov-17 06:47N 38°58' W 075°11'6 0.5
2017-Nov-16 17:21N 38°56' W 075°19'0 0.0
2017-Nov-16 16:54N 38°56' W 075°19'0 0.0
2017-Nov-16 15:25N 38°56' W 075°19'0 0.0
2017-Nov-16 13:58N 38°56' W 075°19'0 0.0
2017-Nov-16 13:22N 38°56' W 075°19'0 0.0
2017-Nov-16 13:00N 38°56' W 075°19'0 0.0
2017-Nov-16 12:30N 38°56' W 075°19'0 0.0
2017-Nov-16 12:00N 38°56' W 075°19'0 0.0
2017-Nov-16 11:30N 38°56' W 075°19'0 0.0
2017-Nov-16 11:00N 38°56' W 075°19'0 0.0
2017-Nov-16 10:30N 38°56' W 075°19'0 0.0
2017-Nov-16 09:52N 38°56' W 075°19'0 0.0
2017-Nov-16 09:30N 38°56' W 075°19'0 0.0
2017-Nov-16 00:28N 38°56' W 075°19'0 0.0
2017-Nov-15 18:11N 38°56' W 075°19'1 2.1
2017-Nov-15 17:48N 38°56' W 075°18'5 1.1
2017-Nov-15 13:17N 39°00' W 075°14'0 0.1
2017-Nov-15 12:54N 39°00' W 075°14'5 9.4
2017-Nov-15 12:21N 38°56' W 075°18'1 0.1
2017-Nov-15 02:44N 38°56' W 075°19'0 0.0
2017-Nov-14 12:43N 38°56' W 075°19'0 0.0
2017-Nov-14 11:21N 38°56' W 075°19'0 0.0
2017-Nov-14 10:57N 38°56' W 075°19'0 0.0
2017-Nov-14 10:06N 38°56' W 075°19'0 0.0
2017-Nov-14 10:00N 38°56' W 075°19'0 0.0
2017-Nov-14 09:26N 38°56' W 075°19'0 0.0
2017-Nov-14 08:56N 38°56' W 075°19'0 0.0
2017-Nov-14 08:23N 38°56' W 075°19'0 0.0
2017-Nov-14 08:00N 38°56' W 075°19'0 0.0
2017-Nov-14 07:29N 38°56' W 075°19'0 0.0
2017-Nov-14 07:00N 38°56' W 075°19'0 0.0
2017-Nov-14 06:29N 38°56' W 075°19'0 0.0
2017-Nov-14 06:00N 38°56' W 075°19'0 0.0
2017-Nov-14 05:29N 38°56' W 075°19'0 0.0
2017-Nov-14 04:40N 38°56' W 075°19'0 0.0
2017-Nov-14 04:30N 38°56' W 075°19'0 0.0
2017-Nov-14 03:58N 38°56' W 075°19'0 0.0
2017-Nov-14 03:27N 38°56' W 075°19'0 0.0
2017-Nov-14 02:58N 38°56' W 075°19'0 0.0
2017-Nov-14 02:21N 38°56' W 075°19'  
2017-Nov-11 17:07N 38°59' W 075°13'0 0.6
2017-Nov-11 17:00N 38°59' W 075°13'6 0.2
2017-Nov-10 11:21N 38°56' W 075°19'0 0.0
2017-Nov-10 10:45N 38°56' W 075°19'0 0.0
2017-Nov-10 10:30N 38°56' W 075°19'0 0.0
2017-Nov-10 10:00N 38°56' W 075°19'0 0.0
2017-Nov-10 09:30N 38°56' W 075°19'0 0.0
2017-Nov-10 09:00N 38°56' W 075°19'0 0.0
2017-Nov-10 08:30N 38°56' W 075°19'0 0.0
2017-Nov-10 08:00N 38°56' W 075°19'0 0.0
2017-Nov-10 07:30N 38°56' W 075°19'0 0.0
2017-Nov-10 07:00N 38°56' W 075°19'0 0.0
2017-Nov-10 06:30N 38°56' W 075°19'0 0.0
2017-Nov-10 06:00N 38°56' W 075°19'0 0.0
2017-Nov-10 02:19N 38°56' W 075°19'0 0.0
2017-Nov-10 01:55N 38°56' W 075°19'  

Dump ship's entire track history